createdAt,value
2019-05-14T00:00:59.066Z,4.62
2019-05-14T00:03:31.134Z,4.17
2019-05-14T00:06:02.248Z,5.42
2019-05-14T00:08:32.886Z,4.42
2019-05-14T00:11:03.063Z,4.12
2019-05-14T00:13:33.260Z,4.20
2019-05-14T00:16:03.430Z,3.65
2019-05-14T00:18:33.624Z,4.45
2019-05-14T00:21:03.866Z,3.52
2019-05-14T00:23:34.068Z,4.05
2019-05-14T00:26:04.307Z,4.10
2019-05-14T00:28:51.745Z,3.90
2019-05-14T00:31:21.972Z,4.42
2019-05-14T00:33:52.234Z,4.80
2019-05-14T00:36:22.421Z,4.37
2019-05-14T00:38:52.618Z,4.15
2019-05-14T00:41:22.785Z,4.47
2019-05-14T00:44:10.579Z,4.67
2019-05-14T00:46:41.143Z,4.35
2019-05-14T00:49:11.865Z,4.25
2019-05-14T00:51:42.352Z,4.62
2019-05-14T00:54:12.536Z,3.70
2019-05-14T00:56:42.711Z,4.47
2019-05-14T00:59:12.991Z,5.05
2019-05-14T01:01:43.155Z,4.78
2019-05-14T01:04:13.502Z,4.90
2019-05-14T01:06:43.679Z,4.83
2019-05-14T01:09:14.152Z,4.90
2019-05-14T01:11:44.342Z,4.92
2019-05-14T01:14:14.747Z,5.33
2019-05-14T01:16:44.954Z,5.53
2019-05-14T01:19:15.151Z,5.12
2019-05-14T01:21:45.423Z,5.45
2019-05-14T01:24:15.613Z,5.15
2019-05-14T01:26:45.811Z,4.87
2019-05-14T01:29:16.106Z,5.05
2019-05-14T01:31:46.303Z,3.67
2019-05-14T01:34:16.513Z,4.97
2019-05-14T01:36:46.759Z,5.95
2019-05-14T01:39:17.023Z,5.85
2019-05-14T01:41:47.219Z,5.33
2019-05-14T01:44:37.428Z,5.12
2019-05-14T01:47:07.591Z,5.25
2019-05-14T01:49:37.806Z,5.20
2019-05-14T01:52:07.984Z,5.58
2019-05-14T01:54:38.180Z,5.40
2019-05-14T01:57:08.683Z,5.20
2019-05-14T01:59:55.659Z,6.47
2019-05-14T02:02:25.855Z,5.55
2019-05-14T02:04:56.130Z,5.60
2019-05-14T02:07:26.334Z,6.10
2019-05-14T02:09:56.579Z,5.85
2019-05-14T02:15:02.270Z,6.20
2019-05-14T02:17:32.474Z,6.30
2019-05-14T02:20:03.227Z,6.00
2019-05-14T02:22:33.432Z,5.78
2019-05-14T02:25:03.629Z,6.33
2019-05-14T02:27:35.045Z,6.30
2019-05-14T02:30:07.127Z,5.83
2019-05-14T02:32:40.414Z,6.28
2019-05-14T02:35:22.361Z,6.15
2019-05-14T02:37:52.550Z,6.05
2019-05-14T02:40:22.835Z,6.62
2019-05-14T02:42:53.020Z,6.58
2019-05-14T02:45:23.291Z,6.55
2019-05-14T02:47:53.587Z,6.70
2019-05-14T02:50:24.020Z,6.62
2019-05-14T02:52:54.213Z,4.77
2019-05-14T02:55:24.463Z,6.87
2019-05-14T02:57:54.679Z,6.35
2019-05-14T03:00:24.949Z,6.97
2019-05-14T03:02:55.240Z,5.97
2019-05-14T03:05:25.752Z,6.72
2019-05-14T03:07:59.036Z,5.95
2019-05-14T03:10:30.235Z,7.35
2019-05-14T03:12:59.995Z,6.75
2019-05-14T03:15:30.255Z,6.78
2019-05-14T03:18:00.577Z,4.63
2019-05-14T03:20:30.747Z,6.87
2019-05-14T03:23:08.007Z,7.42
2019-05-14T03:25:32.888Z,7.22
2019-05-14T03:28:03.102Z,5.35
2019-05-14T03:30:33.350Z,7.97
2019-05-14T03:33:03.744Z,8.40
2019-05-14T03:35:42.495Z,7.23
2019-05-14T03:38:05.845Z,7.37
2019-05-14T03:40:40.005Z,7.87
2019-05-14T03:43:09.660Z,7.55
2019-05-14T03:45:39.834Z,7.95
2019-05-14T03:48:10.588Z,7.87
2019-05-14T03:50:41.171Z,8.20
2019-05-14T03:55:41.878Z,7.70
2019-05-14T03:58:12.100Z,8.43
2019-05-14T04:04:14.009Z,8.13
2019-05-14T04:06:44.589Z,8.58
2019-05-14T04:09:15.202Z,5.87
2019-05-14T04:11:45.404Z,7.70
2019-05-14T04:14:15.851Z,8.70
2019-05-14T04:17:01.598Z,8.35
2019-05-14T04:19:19.016Z,8.88
2019-05-14T04:21:50.152Z,7.67
2019-05-14T04:24:21.671Z,7.40
2019-05-14T04:27:02.145Z,7.55
2019-05-14T04:30:00.832Z,7.35
2019-05-14T04:32:31.597Z,6.78
2019-05-14T04:35:01.885Z,6.90
2019-05-14T04:37:32.242Z,4.37
2019-05-14T04:40:02.570Z,6.73
2019-05-14T04:42:32.779Z,6.12
2019-05-14T04:45:05.713Z,5.92
2019-05-14T04:47:37.398Z,6.37
2019-05-14T04:50:10.210Z,6.15
2019-05-14T04:52:40.256Z,5.50
2019-05-14T04:55:11.303Z,4.92
2019-05-14T04:57:41.778Z,5.25
2019-05-14T05:00:12.695Z,4.67
2019-05-14T05:02:43.361Z,4.37
2019-05-14T05:05:13.541Z,4.47
2019-05-14T05:07:43.753Z,4.00
2019-05-14T05:10:14.003Z,4.22
2019-05-14T05:12:44.203Z,4.30
2019-05-14T05:15:14.460Z,4.30
2019-05-14T05:17:51.724Z,3.85
2019-05-14T05:20:19.133Z,3.42
2019-05-14T05:22:48.683Z,3.45
2019-05-14T05:25:19.029Z,3.63
2019-05-14T05:27:49.536Z,3.70
2019-05-14T05:30:20.556Z,3.72
2019-05-14T05:32:50.754Z,3.90
2019-05-14T05:35:21.004Z,3.62
2019-05-14T05:37:51.666Z,3.90
2019-05-14T05:40:21.888Z,3.77
2019-05-14T05:42:52.082Z,4.25
2019-05-14T05:45:22.347Z,3.98
2019-05-14T05:47:57.365Z,4.35
2019-05-14T05:50:24.523Z,4.20
2019-05-14T05:52:54.741Z,4.75
2019-05-14T05:55:24.911Z,4.37
2019-05-14T05:57:55.195Z,4.37
2019-05-14T06:00:49.972Z,4.80
2019-05-14T06:03:20.989Z,4.42
2019-05-14T06:08:55.373Z,4.10
2019-05-14T06:11:25.759Z,4.20
2019-05-14T06:13:55.974Z,3.92
2019-05-14T06:16:28.818Z,4.20
2019-05-14T06:18:58.818Z,4.25
2019-05-14T06:21:29.435Z,4.10
2019-05-14T06:24:02.710Z,3.58
2019-05-14T06:26:31.547Z,3.70
2019-05-14T06:29:01.807Z,3.47
2019-05-14T06:31:32.007Z,3.40
2019-05-14T06:34:03.165Z,3.17
2019-05-14T06:36:33.427Z,3.30
2019-05-14T06:39:05.387Z,3.40
2019-05-14T06:41:35.625Z,3.05
2019-05-14T06:44:05.799Z,2.83
2019-05-14T06:46:36.030Z,2.90
2019-05-14T06:49:06.207Z,3.67
2019-05-14T06:51:39.310Z,2.98
2019-05-14T06:54:29.269Z,3.08
2019-05-14T06:57:00.387Z,3.45
2019-05-14T06:59:30.618Z,3.17
2019-05-14T07:02:00.829Z,2.85
2019-05-14T07:04:31.016Z,3.50
2019-05-14T07:07:01.216Z,2.25
2019-05-14T07:09:31.470Z,1.95
2019-05-14T07:12:01.670Z,1.52
2019-05-14T07:14:32.828Z,1.57
2019-05-14T07:17:03.024Z,1.40
2019-05-14T07:19:33.211Z,1.35
2019-05-14T07:22:03.420Z,1.20
2019-05-14T07:24:36.841Z,1.55
2019-05-14T07:27:05.502Z,1.40
2019-05-14T07:29:35.685Z,1.22
2019-05-14T07:32:08.748Z,1.57
2019-05-14T07:34:38.863Z,1.32
2019-05-14T07:37:09.650Z,1.40
2019-05-14T07:39:40.261Z,1.50
2019-05-14T07:42:10.576Z,1.67
2019-05-14T07:44:41.068Z,1.37
2019-05-14T07:47:11.500Z,1.42
2019-05-14T07:49:41.677Z,1.67
2019-05-14T07:52:11.887Z,1.35
2019-05-14T07:55:01.520Z,1.30
2019-05-14T07:57:31.982Z,1.30
2019-05-14T08:00:03.242Z,1.35
2019-05-14T08:02:33.714Z,1.20
2019-05-14T08:05:05.626Z,1.70
2019-05-14T08:07:35.823Z,1.20
2019-05-14T08:10:09.048Z,1.50
2019-05-14T08:12:39.512Z,1.60
2019-05-14T08:15:17.661Z,1.70
2019-05-14T08:17:42.110Z,1.62
2019-05-14T08:20:12.401Z,1.35
2019-05-14T08:22:42.659Z,1.60
2019-05-14T08:25:12.926Z,1.70
2019-05-14T08:27:43.146Z,1.82
2019-05-14T08:30:13.351Z,1.40
2019-05-14T08:32:43.750Z,1.55
2019-05-14T08:35:14.019Z,2.10
2019-05-14T08:37:44.218Z,1.75
2019-05-14T08:40:16.386Z,1.55
2019-05-14T08:42:46.404Z,1.82
2019-05-14T08:45:18.833Z,1.70
2019-05-14T08:47:48.510Z,1.65
2019-05-14T08:50:19.389Z,2.08
2019-05-14T08:52:49.595Z,1.45
2019-05-14T08:55:19.816Z,1.82
2019-05-14T08:57:50.138Z,1.75
2019-05-14T09:00:20.828Z,1.42
2019-05-14T09:02:51.023Z,2.02
2019-05-14T09:05:21.231Z,1.98
2019-05-14T09:07:51.473Z,1.70
2019-05-14T09:10:21.857Z,1.92
2019-05-14T09:12:52.068Z,1.62
2019-05-14T09:15:22.386Z,1.67
2019-05-14T09:17:52.588Z,1.75
2019-05-14T09:20:22.831Z,1.72
2019-05-14T09:22:53.099Z,2.12
2019-05-14T09:25:23.287Z,2.00
2019-05-14T09:27:53.544Z,1.85
2019-05-14T09:30:23.935Z,1.50
2019-05-14T09:32:54.394Z,1.70
2019-05-14T09:35:24.589Z,1.70
2019-05-14T09:37:54.776Z,2.00
2019-05-14T09:40:24.972Z,1.47
2019-05-14T09:42:58.498Z,1.40
2019-05-14T09:45:28.251Z,1.60
2019-05-14T09:50:29.218Z,1.72
2019-05-14T09:53:01.423Z,1.72
2019-05-14T09:55:31.710Z,1.60
2019-05-14T09:58:01.992Z,1.70
2019-05-14T10:00:32.725Z,1.60
2019-05-14T10:03:03.077Z,1.62
2019-05-14T10:05:33.357Z,1.32
2019-05-14T10:08:03.679Z,1.42
2019-05-14T10:10:33.885Z,1.52
2019-05-14T10:13:04.115Z,1.30
2019-05-14T10:15:34.310Z,1.10
2019-05-14T10:18:22.539Z,1.50
2019-05-14T10:20:52.746Z,1.30
2019-05-14T10:23:22.920Z,1.30
2019-05-14T10:25:53.123Z,1.15
2019-05-14T10:28:23.512Z,1.10
2019-05-14T10:30:53.783Z,1.37
2019-05-14T10:33:23.967Z,1.50
2019-05-14T10:35:54.574Z,1.15
2019-05-14T10:38:24.823Z,1.35
2019-05-14T10:40:55.028Z,1.60
2019-05-14T10:43:25.202Z,1.47
2019-05-14T10:45:57.878Z,1.50
2019-05-14T10:48:29.172Z,1.40
2019-05-14T10:51:03.428Z,1.60
2019-05-14T10:53:32.395Z,1.70
2019-05-14T10:56:02.591Z,1.70
2019-05-14T10:58:32.772Z,1.17
2019-05-14T11:01:02.970Z,1.60
2019-05-14T11:03:33.153Z,1.57
2019-05-14T11:06:03.352Z,1.77
2019-05-14T11:08:34.555Z,1.52
2019-05-14T11:11:05.347Z,1.70
2019-05-14T11:13:35.679Z,1.70
2019-05-14T11:16:08.409Z,1.40
2019-05-14T11:18:39.898Z,1.50
2019-05-14T11:21:24.830Z,1.90
2019-05-14T11:23:41.559Z,1.90
2019-05-14T11:26:11.786Z,1.67
2019-05-14T11:28:42.143Z,1.73
2019-05-14T11:31:12.370Z,2.15
2019-05-14T11:33:42.558Z,1.70
2019-05-14T11:36:12.831Z,1.67
2019-05-14T11:38:42.999Z,1.85
2019-05-14T11:41:13.319Z,2.15
2019-05-14T11:43:43.565Z,1.82
2019-05-14T11:46:14.125Z,2.10
2019-05-14T11:48:44.369Z,2.20
2019-05-14T11:51:54.777Z,2.20
2019-05-14T11:53:59.550Z,2.27
2019-05-14T11:56:29.751Z,1.90
2019-05-14T11:58:59.928Z,2.50
2019-05-14T12:01:30.204Z,2.10
2019-05-14T12:04:00.383Z,2.10
2019-05-14T12:06:30.651Z,2.20
2019-05-14T12:11:32.923Z,2.05
2019-05-14T12:14:03.244Z,2.20
2019-05-14T12:16:33.515Z,2.10
2019-05-14T12:19:03.695Z,2.10
2019-05-14T12:21:33.923Z,2.70
2019-05-14T12:24:06.406Z,2.72
2019-05-14T12:26:38.655Z,2.42
2019-05-14T12:29:10.061Z,2.40
2019-05-14T12:34:10.149Z,2.55
2019-05-14T12:36:40.463Z,2.47
2019-05-14T12:39:10.715Z,2.67
2019-05-14T12:41:40.986Z,2.75
2019-05-14T12:44:11.170Z,2.87
2019-05-14T12:46:41.373Z,2.60
2019-05-14T12:49:11.859Z,2.80
2019-05-14T12:51:42.788Z,2.45
2019-05-14T12:54:13.690Z,2.50
2019-05-14T12:56:43.897Z,2.70
2019-05-14T12:59:14.075Z,2.30
2019-05-14T13:01:44.294Z,2.67
2019-05-14T13:04:14.466Z,2.72
2019-05-14T13:06:44.704Z,2.27
2019-05-14T13:09:18.228Z,2.67
2019-05-14T13:11:48.036Z,2.30
2019-05-14T13:16:48.608Z,2.62
2019-05-14T13:22:07.054Z,2.30
2019-05-14T13:24:21.232Z,2.22
2019-05-14T13:26:51.439Z,2.83
2019-05-14T13:29:21.675Z,2.20
2019-05-14T13:31:51.985Z,2.27
2019-05-14T13:34:40.731Z,2.30
2019-05-14T13:37:11.066Z,2.20
2019-05-14T13:39:41.256Z,2.35
2019-05-14T13:42:12.148Z,2.27
2019-05-14T13:44:42.359Z,2.10
2019-05-14T13:47:12.680Z,2.35
2019-05-14T13:49:43.031Z,2.02
2019-05-14T13:52:13.287Z,2.10
2019-05-14T13:54:43.531Z,2.47
2019-05-14T13:57:13.874Z,1.87
2019-05-14T13:59:44.811Z,2.12
2019-05-14T14:02:15.215Z,2.17
2019-05-14T14:04:45.427Z,2.60
2019-05-14T14:07:15.617Z,2.27
2019-05-14T14:09:45.890Z,2.35
2019-05-14T14:12:16.142Z,2.00
2019-05-14T14:14:49.089Z,2.15
2019-05-14T14:17:18.694Z,2.25
2019-05-14T14:19:48.958Z,2.12
2019-05-14T14:22:19.719Z,2.17
2019-05-14T14:24:50.080Z,2.47
2019-05-14T14:27:20.457Z,2.07
2019-05-14T14:32:21.128Z,2.20
2019-05-14T14:34:51.654Z,2.02
2019-05-14T14:37:21.838Z,2.20
2019-05-14T14:39:52.042Z,2.52
2019-05-14T14:42:22.264Z,2.45
2019-05-14T14:44:52.520Z,2.20
2019-05-14T14:47:22.731Z,2.30
2019-05-14T14:49:53.032Z,2.20
2019-05-14T14:52:23.303Z,2.10
2019-05-14T14:55:12.190Z,2.20
2019-05-14T14:57:45.743Z,2.65
2019-05-14T15:00:14.812Z,2.00
2019-05-14T15:02:45.097Z,2.70
2019-05-14T15:05:15.569Z,2.40
2019-05-14T15:07:49.211Z,2.23
2019-05-14T15:10:19.329Z,2.58
2019-05-14T15:12:50.140Z,2.20
2019-05-14T15:15:20.407Z,2.45
2019-05-14T15:17:50.940Z,2.55
2019-05-14T15:20:21.440Z,2.47
2019-05-14T15:22:52.108Z,2.43
2019-05-14T15:25:22.481Z,2.60
2019-05-14T15:27:52.785Z,3.05
2019-05-14T15:30:23.002Z,2.70
2019-05-14T15:32:53.345Z,2.55
2019-05-14T15:35:23.613Z,2.50
2019-05-14T15:37:54.275Z,2.40
2019-05-14T15:40:24.652Z,2.62
2019-05-14T15:42:55.020Z,2.42
2019-05-14T15:45:25.268Z,2.20
2019-05-14T15:47:59.004Z,2.30
2019-05-14T15:50:29.262Z,3.35
2019-05-14T15:52:59.629Z,2.67
2019-05-14T15:55:29.927Z,2.30
2019-05-14T15:58:00.220Z,2.40
2019-05-14T16:00:30.492Z,2.50
2019-05-14T16:03:00.827Z,2.60
2019-05-14T16:05:31.037Z,2.77
2019-05-14T16:08:01.313Z,2.65
2019-05-14T16:10:31.819Z,2.85
2019-05-14T16:13:02.115Z,2.50
2019-05-14T16:15:32.440Z,2.77
2019-05-14T16:18:08.747Z,2.52
2019-05-14T16:20:35.632Z,2.70
2019-05-14T16:23:05.927Z,2.72
2019-05-14T16:25:38.007Z,2.45
2019-05-14T16:28:08.836Z,2.40
2019-05-14T16:30:39.857Z,2.40
2019-05-14T16:33:10.172Z,2.42
2019-05-14T16:36:01.586Z,2.50
2019-05-14T16:38:33.083Z,2.40
2019-05-14T16:41:03.282Z,2.85
2019-05-14T16:43:33.502Z,2.92
2019-05-14T16:46:03.792Z,2.45
2019-05-14T16:48:34.092Z,2.22
2019-05-14T16:51:04.334Z,2.70
2019-05-14T16:53:34.528Z,2.83
2019-05-14T16:56:04.784Z,2.20
2019-05-14T16:58:38.353Z,2.87
2019-05-14T17:01:10.539Z,2.65
2019-05-14T17:03:40.747Z,2.55
2019-05-14T17:06:10.969Z,2.60
2019-05-14T17:08:42.759Z,2.60
2019-05-14T17:11:13.087Z,2.62
2019-05-14T17:13:43.309Z,2.87
2019-05-14T17:16:13.695Z,2.58
2019-05-14T17:18:44.047Z,2.47
2019-05-14T17:21:14.320Z,2.70
2019-05-14T17:23:44.530Z,3.05
2019-05-14T17:26:14.730Z,2.72
2019-05-14T17:31:15.410Z,2.92
2019-05-14T17:33:45.629Z,2.45
2019-05-14T17:36:15.821Z,2.58
2019-05-14T17:38:46.106Z,2.50
2019-05-14T17:41:16.295Z,2.60
2019-05-14T17:43:48.796Z,2.80
2019-05-14T17:46:19.449Z,2.55
2019-05-14T17:48:50.393Z,2.60
2019-05-14T17:51:20.977Z,2.87
2019-05-14T17:53:53.644Z,3.00
2019-05-14T17:56:23.969Z,3.17
2019-05-14T17:58:54.221Z,3.12
2019-05-14T18:01:24.554Z,3.30
2019-05-14T18:06:28.360Z,3.30
2019-05-14T18:08:58.309Z,2.77
2019-05-14T18:11:28.944Z,3.00
2019-05-14T18:13:59.204Z,3.12
2019-05-14T18:16:29.455Z,3.12
2019-05-14T18:18:59.639Z,3.22
2019-05-14T18:21:30.012Z,3.30
2019-05-14T18:24:00.271Z,3.30
2019-05-14T18:26:30.556Z,3.15
2019-05-14T18:29:04.098Z,3.98
2019-05-14T18:31:33.050Z,3.40
2019-05-14T18:34:03.528Z,3.57
2019-05-14T18:36:34.133Z,4.20
2019-05-14T18:39:05.018Z,4.35
2019-05-14T18:41:38.716Z,3.67
2019-05-14T18:44:08.472Z,3.30
2019-05-14T18:46:39.388Z,3.27
2019-05-14T18:49:11.010Z,3.33
2019-05-14T18:51:41.563Z,3.58
2019-05-14T18:54:11.750Z,3.77
2019-05-14T18:56:42.025Z,3.50
2019-05-14T18:59:12.266Z,3.83
2019-05-14T19:01:42.495Z,4.47
2019-05-14T19:04:12.737Z,8.38
2019-05-14T19:06:42.938Z,8.30
2019-05-14T19:09:13.172Z,7.62
2019-05-14T19:11:43.700Z,7.37
2019-05-14T19:14:13.923Z,5.73
2019-05-14T19:16:44.182Z,5.15
2019-05-14T19:22:03.340Z,6.40
2019-05-14T19:24:33.649Z,6.17
2019-05-14T19:27:03.839Z,5.97
2019-05-14T19:29:34.071Z,5.33
2019-05-14T19:32:04.288Z,4.53
2019-05-14T19:34:34.579Z,3.87
2019-05-14T19:37:04.887Z,4.17
2019-05-14T19:39:35.240Z,3.90
2019-05-14T19:42:05.476Z,4.67
2019-05-14T19:44:37.430Z,3.85
2019-05-14T19:47:07.670Z,4.17
2019-05-14T19:49:38.371Z,4.08
2019-05-14T19:52:28.283Z,4.83
2019-05-14T19:54:58.715Z,4.53
2019-05-14T19:57:29.139Z,4.47
2019-05-14T19:59:59.556Z,3.90
2019-05-14T20:02:29.804Z,4.30
2019-05-14T20:05:00.107Z,5.12
2019-05-14T20:07:30.377Z,4.05
2019-05-14T20:10:00.674Z,5.62
2019-05-14T20:12:31.190Z,8.20
2019-05-14T20:15:02.516Z,8.25
2019-05-14T20:17:32.777Z,4.00
2019-05-14T20:20:05.032Z,10.13
2019-05-14T20:22:35.295Z,12.68
2019-05-14T20:25:07.398Z,6.55
2019-05-14T20:27:38.929Z,26.93
2019-05-14T20:30:10.055Z,10.60
2019-05-14T20:32:40.311Z,5.60
2019-05-14T20:35:10.531Z,4.65
2019-05-14T20:38:20.961Z,5.15
2019-05-14T20:40:52.124Z,4.62
2019-05-14T20:43:22.303Z,4.97
2019-05-14T20:45:52.564Z,4.83
2019-05-14T20:48:22.793Z,4.12
2019-05-14T20:50:53.008Z,3.60
2019-05-14T20:53:23.838Z,3.40
2019-05-14T20:55:54.046Z,3.42
2019-05-14T20:58:24.232Z,3.65
2019-05-14T21:00:54.467Z,3.75
2019-05-14T21:03:24.676Z,3.90
2019-05-14T21:05:55.364Z,4.22
2019-05-14T21:08:25.600Z,4.20
2019-05-14T21:10:55.924Z,3.77
2019-05-14T21:13:27.844Z,3.70
2019-05-14T21:15:58.144Z,3.75
2019-05-14T21:18:35.254Z,4.20
2019-05-14T21:21:00.898Z,3.75
2019-05-14T21:23:31.365Z,4.55
2019-05-14T21:28:31.899Z,3.77
2019-05-14T21:31:02.877Z,4.37
2019-05-14T21:33:33.188Z,3.80
2019-05-14T21:36:03.425Z,5.08
2019-05-14T21:38:51.750Z,4.03
2019-05-14T21:41:22.072Z,4.05
2019-05-14T21:43:52.520Z,4.07
2019-05-14T21:46:22.829Z,3.72
2019-05-14T21:48:53.108Z,4.47
2019-05-14T21:51:23.404Z,4.28
2019-05-14T21:53:58.767Z,3.60
2019-05-14T21:56:31.120Z,3.58
2019-05-14T21:59:01.709Z,3.87
2019-05-14T22:01:32.500Z,4.55
2019-05-14T22:04:03.211Z,3.80
2019-05-14T22:06:33.502Z,4.67
2019-05-14T22:09:08.712Z,4.58
2019-05-14T22:11:39.262Z,4.85
2019-05-14T22:14:12.627Z,4.97
2019-05-14T22:16:42.912Z,4.75
2019-05-14T22:19:13.327Z,5.42
2019-05-14T22:21:43.612Z,6.10
2019-05-14T22:24:13.954Z,6.03
2019-05-14T22:26:44.156Z,5.75
2019-05-14T22:29:14.482Z,5.30
2019-05-14T22:31:44.756Z,5.60
2019-05-14T22:34:15.152Z,4.83
2019-05-14T22:36:52.089Z,4.53
2019-05-14T22:39:23.361Z,4.67
2019-05-14T22:41:53.580Z,4.53
2019-05-14T22:44:24.039Z,4.87
2019-05-14T22:46:54.256Z,4.62
2019-05-14T22:49:24.556Z,4.60
2019-05-14T22:51:54.771Z,4.85
2019-05-14T22:54:25.136Z,4.40
2019-05-14T22:56:55.340Z,4.75
2019-05-14T22:59:28.161Z,4.20
2019-05-14T23:01:58.912Z,4.37
2019-05-14T23:04:29.409Z,4.35
2019-05-14T23:06:59.692Z,4.47
2019-05-14T23:09:29.926Z,4.95
2019-05-14T23:12:00.245Z,4.35
2019-05-14T23:17:00.880Z,4.97
2019-05-14T23:19:31.183Z,4.90
2019-05-14T23:22:04.096Z,4.75
2019-05-14T23:24:33.450Z,4.80
2019-05-14T23:27:03.943Z,3.30
2019-05-14T23:29:34.258Z,5.05
2019-05-14T23:32:04.548Z,4.95
2019-05-14T23:34:34.840Z,5.08
2019-05-14T23:37:05.121Z,5.25
2019-05-14T23:39:35.699Z,5.10
2019-05-14T23:42:09.110Z,5.28
2019-05-14T23:44:39.664Z,5.10
2019-05-14T23:47:09.944Z,5.28
2019-05-14T23:49:40.243Z,5.62
2019-05-14T23:52:10.455Z,5.10
2019-05-14T23:54:40.799Z,5.22
2019-05-14T23:57:11.093Z,4.10
2019-05-14T23:59:41.404Z,5.03
